sensor_id;sensor_type;location;lat;lon;timestamp;P1;durP1;ratioP1;P2;durP2;ratioP2
23123;SDS011;11731;48.592;8.858;2022-07-29T00:02:21;14.70;;;9.97;;
23123;SDS011;11731;48.592;8.858;2022-07-29T00:04:48;12.80;;;9.90;;
23123;SDS011;11731;48.592;8.858;2022-07-29T00:07:15;10.70;;;9.60;;
23123;SDS011;11731;48.592;8.858;2022-07-29T00:09:43;12.33;;;9.93;;
23123;SDS011;11731;48.592;8.858;2022-07-29T00:12:10;11.40;;;10.10;;
23123;SDS011;11731;48.592;8.858;2022-07-29T00:14:37;11.70;;;10.50;;
23123;SDS011;11731;48.592;8.858;2022-07-29T00:17:04;12.40;;;10.40;;
23123;SDS011;11731;48.592;8.858;2022-07-29T00:20:14;12.03;;;10.50;;
23123;SDS011;11731;48.592;8.858;2022-07-29T00:23:57;12.33;;;11.07;;
23123;SDS011;11731;48.592;8.858;2022-07-29T00:33:40;11.43;;;10.33;;
23123;SDS011;11731;48.592;8.858;2022-07-29T00:38:37;12.10;;;10.30;;
23123;SDS011;11731;48.592;8.858;2022-07-29T00:44:17;11.97;;;10.63;;
23123;SDS011;11731;48.592;8.858;2022-07-29T00:46:44;12.77;;;11.60;;
23123;SDS011;11731;48.592;8.858;2022-07-29T00:49:13;13.60;;;11.80;;
23123;SDS011;11731;48.592;8.858;2022-07-29T00:51:39;13.37;;;12.10;;
23123;SDS011;11731;48.592;8.858;2022-07-29T00:54:07;13.30;;;11.67;;
23123;SDS011;11731;48.592;8.858;2022-07-29T00:56:34;14.23;;;12.00;;
23123;SDS011;11731;48.592;8.858;2022-07-29T00:59:01;12.77;;;11.47;;
23123;SDS011;11731;48.592;8.858;2022-07-29T01:01:28;12.33;;;11.23;;
23123;SDS011;11731;48.592;8.858;2022-07-29T01:03:55;13.63;;;11.33;;
23123;SDS011;11731;48.592;8.858;2022-07-29T01:06:23;12.97;;;11.87;;
23123;SDS011;11731;48.592;8.858;2022-07-29T01:08:51;11.57;;;10.53;;
23123;SDS011;11731;48.592;8.858;2022-07-29T01:11:18;11.83;;;10.43;;
23123;SDS011;11731;48.592;8.858;2022-07-29T01:13:46;13.17;;;11.80;;
23123;SDS011;11731;48.592;8.858;2022-07-29T01:16:15;12.87;;;11.57;;
23123;SDS011;11731;48.592;8.858;2022-07-29T01:18:47;14.03;;;12.63;;
23123;SDS011;11731;48.592;8.858;2022-07-29T01:21:27;14.13;;;12.73;;
23123;SDS011;11731;48.592;8.858;2022-07-29T01:27:18;13.83;;;12.53;;
23123;SDS011;11731;48.592;8.858;2022-07-29T01:29:59;13.47;;;12.00;;
23123;SDS011;11731;48.592;8.858;2022-07-29T01:32:29;14.77;;;13.20;;
23123;SDS011;11731;48.592;8.858;2022-07-29T01:35:01;15.27;;;13.63;;
23123;SDS011;11731;48.592;8.858;2022-07-29T01:37:32;13.70;;;12.40;;
23123;SDS011;11731;48.592;8.858;2022-07-29T01:40:04;14.53;;;13.17;;
23123;SDS011;11731;48.592;8.858;2022-07-29T01:42:36;14.70;;;12.87;;
23123;SDS011;11731;48.592;8.858;2022-07-29T01:45:10;15.57;;;14.07;;
23123;SDS011;11731;48.592;8.858;2022-07-29T01:47:42;16.70;;;12.67;;
23123;SDS011;11731;48.592;8.858;2022-07-29T01:50:13;14.57;;;13.07;;
23123;SDS011;11731;48.592;8.858;2022-07-29T01:52:43;16.37;;;13.57;;
23123;SDS011;11731;48.592;8.858;2022-07-29T01:55:16;16.30;;;13.63;;
23123;SDS011;11731;48.592;8.858;2022-07-29T01:57:46;16.43;;;14.80;;
23123;SDS011;11731;48.592;8.858;2022-07-29T02:00:16;16.67;;;15.10;;
23123;SDS011;11731;48.592;8.858;2022-07-29T02:02:45;17.83;;;16.03;;
23123;SDS011;11731;48.592;8.858;2022-07-29T02:05:14;18.23;;;16.20;;
23123;SDS011;11731;48.592;8.858;2022-07-29T02:07:44;19.57;;;17.50;;
23123;SDS011;11731;48.592;8.858;2022-07-29T02:10:13;17.00;;;15.30;;
23123;SDS011;11731;48.592;8.858;2022-07-29T02:12:43;17.57;;;15.63;;
23123;SDS011;11731;48.592;8.858;2022-07-29T02:15:12;15.77;;;14.17;;
23123;SDS011;11731;48.592;8.858;2022-07-29T02:17:43;16.17;;;14.47;;
23123;SDS011;11731;48.592;8.858;2022-07-29T02:20:14;15.77;;;13.63;;
23123;SDS011;11731;48.592;8.858;2022-07-29T02:22:43;16.47;;;14.83;;
23123;SDS011;11731;48.592;8.858;2022-07-29T02:25:11;16.60;;;14.83;;
23123;SDS011;11731;48.592;8.858;2022-07-29T02:27:38;15.90;;;14.40;;
23123;SDS011;11731;48.592;8.858;2022-07-29T02:30:07;16.90;;;15.30;;
23123;SDS011;11731;48.592;8.858;2022-07-29T02:32:36;16.17;;;14.57;;
23123;SDS011;11731;48.592;8.858;2022-07-29T02:35:07;15.93;;;14.43;;
23123;SDS011;11731;48.592;8.858;2022-07-29T02:37:35;16.77;;;15.07;;
23123;SDS011;11731;48.592;8.858;2022-07-29T02:40:04;16.20;;;14.50;;
23123;SDS011;11731;48.592;8.858;2022-07-29T02:42:35;15.57;;;14.17;;
23123;SDS011;11731;48.592;8.858;2022-07-29T02:45:04;14.97;;;13.57;;
23123;SDS011;11731;48.592;8.858;2022-07-29T02:47:33;15.03;;;13.63;;
23123;SDS011;11731;48.592;8.858;2022-07-29T02:50:04;17.57;;;14.13;;
23123;SDS011;11731;48.592;8.858;2022-07-29T02:52:37;15.10;;;13.70;;
23123;SDS011;11731;48.592;8.858;2022-07-29T02:55:10;17.10;;;13.70;;
23123;SDS011;11731;48.592;8.858;2022-07-29T02:57:42;16.07;;;12.40;;
23123;SDS011;11731;48.592;8.858;2022-07-29T03:00:13;14.90;;;13.13;;
23123;SDS011;11731;48.592;8.858;2022-07-29T03:02:42;13.07;;;10.43;;
23123;SDS011;11731;48.592;8.858;2022-07-29T03:05:13;9.33;;;8.43;;
23123;SDS011;11731;48.592;8.858;2022-07-29T03:07:45;10.57;;;9.47;;
23123;SDS011;11731;48.592;8.858;2022-07-29T03:10:15;9.17;;;8.13;;
23123;SDS011;11731;48.592;8.858;2022-07-29T03:12:42;9.13;;;8.23;;
23123;SDS011;11731;48.592;8.858;2022-07-29T03:15:10;7.30;;;6.50;;
23123;SDS011;11731;48.592;8.858;2022-07-29T03:17:38;7.13;;;6.43;;
23123;SDS011;11731;48.592;8.858;2022-07-29T03:20:06;7.43;;;6.73;;
23123;SDS011;11731;48.592;8.858;2022-07-29T03:22:39;9.97;;;8.10;;
23123;SDS011;11731;48.592;8.858;2022-07-29T03:25:09;9.43;;;8.53;;
23123;SDS011;11731;48.592;8.858;2022-07-29T03:27:36;10.37;;;9.27;;
23123;SDS011;11731;48.592;8.858;2022-07-29T03:30:03;11.43;;;10.33;;
23123;SDS011;11731;48.592;8.858;2022-07-29T03:32:31;11.43;;;9.00;;
23123;SDS011;11731;48.592;8.858;2022-07-29T03:34:58;12.40;;;9.83;;
23123;SDS011;11731;48.592;8.858;2022-07-29T03:37:25;9.87;;;8.90;;
23123;SDS011;11731;48.592;8.858;2022-07-29T03:39:54;9.30;;;8.40;;
23123;SDS011;11731;48.592;8.858;2022-07-29T03:42:23;9.80;;;8.80;;
23123;SDS011;11731;48.592;8.858;2022-07-29T03:44:52;8.90;;;8.00;;
23123;SDS011;11731;48.592;8.858;2022-07-29T03:47:22;9.03;;;8.23;;
23123;SDS011;11731;48.592;8.858;2022-07-29T03:49:52;9.43;;;8.53;;
23123;SDS011;11731;48.592;8.858;2022-07-29T03:52:23;13.13;;;9.37;;
23123;SDS011;11731;48.592;8.858;2022-07-29T03:54:50;10.70;;;9.70;;
23123;SDS011;11731;48.592;8.858;2022-07-29T03:57:18;10.97;;;9.83;;
23123;SDS011;11731;48.592;8.858;2022-07-29T03:59:49;11.47;;;10.43;;
23123;SDS011;11731;48.592;8.858;2022-07-29T04:02:18;11.53;;;10.53;;
23123;SDS011;11731;48.592;8.858;2022-07-29T04:04:47;11.47;;;10.47;;
23123;SDS011;11731;48.592;8.858;2022-07-29T04:07:14;12.00;;;10.90;;
23123;SDS011;11731;48.592;8.858;2022-07-29T04:09:41;14.37;;;11.53;;
23123;SDS011;11731;48.592;8.858;2022-07-29T04:12:11;14.43;;;12.17;;
23123;SDS011;11731;48.592;8.858;2022-07-29T04:14:39;12.20;;;10.90;;
23123;SDS011;11731;48.592;8.858;2022-07-29T04:17:06;13.47;;;11.50;;
23123;SDS011;11731;48.592;8.858;2022-07-29T04:19:33;11.57;;;10.47;;
23123;SDS011;11731;48.592;8.858;2022-07-29T04:22:00;12.60;;;11.43;;
23123;SDS011;11731;48.592;8.858;2022-07-29T04:24:27;11.70;;;10.60;;
23123;SDS011;11731;48.592;8.858;2022-07-29T04:26:54;12.50;;;11.30;;
23123;SDS011;11731;48.592;8.858;2022-07-29T04:29:21;11.87;;;10.63;;
23123;SDS011;11731;48.592;8.858;2022-07-29T04:31:50;11.40;;;10.30;;
23123;SDS011;11731;48.592;8.858;2022-07-29T04:34:17;12.13;;;10.93;;
23123;SDS011;11731;48.592;8.858;2022-07-29T04:36:43;12.00;;;10.87;;
23123;SDS011;11731;48.592;8.858;2022-07-29T04:39:10;10.43;;;9.53;;
23123;SDS011;11731;48.592;8.858;2022-07-29T04:41:37;10.27;;;9.33;;
23123;SDS011;11731;48.592;8.858;2022-07-29T04:44:04;11.40;;;10.30;;
23123;SDS011;11731;48.592;8.858;2022-07-29T04:46:31;11.53;;;10.47;;
23123;SDS011;11731;48.592;8.858;2022-07-29T04:49:00;11.00;;;9.97;;
23123;SDS011;11731;48.592;8.858;2022-07-29T04:51:27;11.57;;;10.47;;
23123;SDS011;11731;48.592;8.858;2022-07-29T04:53:54;11.40;;;10.30;;
23123;SDS011;11731;48.592;8.858;2022-07-29T04:56:21;11.07;;;9.80;;
23123;SDS011;11731;48.592;8.858;2022-07-29T04:58:48;11.37;;;10.03;;
23123;SDS011;11731;48.592;8.858;2022-07-29T05:01:15;13.03;;;10.00;;
23123;SDS011;11731;48.592;8.858;2022-07-29T05:03:43;12.20;;;9.57;;
23123;SDS011;11731;48.592;8.858;2022-07-29T05:06:12;9.53;;;8.73;;
23123;SDS011;11731;48.592;8.858;2022-07-29T05:08:39;10.23;;;9.23;;
23123;SDS011;11731;48.592;8.858;2022-07-29T05:11:06;9.93;;;8.93;;
23123;SDS011;11731;48.592;8.858;2022-07-29T05:13:33;10.10;;;9.20;;
23123;SDS011;11731;48.592;8.858;2022-07-29T05:16:01;11.70;;;9.60;;
23123;SDS011;11731;48.592;8.858;2022-07-29T05:18:28;11.13;;;10.03;;
23123;SDS011;11731;48.592;8.858;2022-07-29T05:20:55;11.67;;;9.87;;
23123;SDS011;11731;48.592;8.858;2022-07-29T05:23:23;10.90;;;9.73;;
23123;SDS011;11731;48.592;8.858;2022-07-29T05:25:50;10.03;;;9.03;;
23123;SDS011;11731;48.592;8.858;2022-07-29T05:28:17;10.10;;;8.83;;
23123;SDS011;11731;48.592;8.858;2022-07-29T05:30:44;10.90;;;10.00;;
23123;SDS011;11731;48.592;8.858;2022-07-29T05:33:11;10.83;;;9.93;;
23123;SDS011;11731;48.592;8.858;2022-07-29T05:35:37;12.77;;;9.37;;
23123;SDS011;11731;48.592;8.858;2022-07-29T05:38:04;10.13;;;9.23;;
23123;SDS011;11731;48.592;8.858;2022-07-29T05:40:33;10.20;;;9.30;;
23123;SDS011;11731;48.592;8.858;2022-07-29T05:42:59;10.57;;;9.50;;
23123;SDS011;11731;48.592;8.858;2022-07-29T05:45:26;10.20;;;9.20;;
23123;SDS011;11731;48.592;8.858;2022-07-29T05:47:53;10.97;;;9.93;;
23123;SDS011;11731;48.592;8.858;2022-07-29T05:50:20;9.43;;;8.63;;
23123;SDS011;11731;48.592;8.858;2022-07-29T05:52:47;10.50;;;9.50;;
23123;SDS011;11731;48.592;8.858;2022-07-29T05:55:14;10.43;;;9.43;;
23123;SDS011;11731;48.592;8.858;2022-07-29T05:57:42;10.77;;;9.10;;
23123;SDS011;11731;48.592;8.858;2022-07-29T06:00:10;10.13;;;9.13;;
23123;SDS011;11731;48.592;8.858;2022-07-29T06:02:38;10.37;;;9.37;;
23123;SDS011;11731;48.592;8.858;2022-07-29T06:05:05;10.37;;;9.47;;
23123;SDS011;11731;48.592;8.858;2022-07-29T06:07:32;10.40;;;8.67;;
23123;SDS011;11731;48.592;8.858;2022-07-29T06:09:59;9.70;;;8.80;;
23123;SDS011;11731;48.592;8.858;2022-07-29T06:12:26;10.20;;;9.23;;
23123;SDS011;11731;48.592;8.858;2022-07-29T06:14:54;10.80;;;9.70;;
23123;SDS011;11731;48.592;8.858;2022-07-29T06:17:21;9.50;;;8.50;;
23123;SDS011;11731;48.592;8.858;2022-07-29T06:19:48;9.10;;;8.23;;
23123;SDS011;11731;48.592;8.858;2022-07-29T06:22:15;8.37;;;7.67;;
23123;SDS011;11731;48.592;8.858;2022-07-29T06:24:42;11.70;;;8.13;;
23123;SDS011;11731;48.592;8.858;2022-07-29T06:27:10;8.50;;;7.70;;
23123;SDS011;11731;48.592;8.858;2022-07-29T06:29:37;10.20;;;8.30;;
23123;SDS011;11731;48.592;8.858;2022-07-29T06:32:06;7.70;;;6.90;;
23123;SDS011;11731;48.592;8.858;2022-07-29T06:34:34;7.27;;;6.57;;
23123;SDS011;11731;48.592;8.858;2022-07-29T06:37:05;9.37;;;7.33;;
23123;SDS011;11731;48.592;8.858;2022-07-29T06:39:33;8.03;;;6.57;;
23123;SDS011;11731;48.592;8.858;2022-07-29T06:42:00;7.17;;;6.53;;
23123;SDS011;11731;48.592;8.858;2022-07-29T06:44:27;8.37;;;7.53;;
23123;SDS011;11731;48.592;8.858;2022-07-29T06:46:54;8.77;;;7.03;;
23123;SDS011;11731;48.592;8.858;2022-07-29T06:49:23;8.20;;;7.03;;
23123;SDS011;11731;48.592;8.858;2022-07-29T06:51:51;7.60;;;6.90;;
23123;SDS011;11731;48.592;8.858;2022-07-29T06:55:55;7.30;;;6.70;;
23123;SDS011;11731;48.592;8.858;2022-07-29T06:57:35;7.30;;;6.60;;
23123;SDS011;11731;48.592;8.858;2022-07-29T07:00:03;8.00;;;6.77;;
23123;SDS011;11731;48.592;8.858;2022-07-29T07:02:51;7.10;;;6.13;;
23123;SDS011;11731;48.592;8.858;2022-07-29T07:05:41;9.53;;;6.70;;
23123;SDS011;11731;48.592;8.858;2022-07-29T07:08:08;7.30;;;6.60;;
23123;SDS011;11731;48.592;8.858;2022-07-29T07:10:35;8.30;;;7.07;;
23123;SDS011;11731;48.592;8.858;2022-07-29T07:13:02;8.63;;;7.60;;
23123;SDS011;11731;48.592;8.858;2022-07-29T07:15:33;7.20;;;6.43;;
23123;SDS011;11731;48.592;8.858;2022-07-29T07:18:03;8.17;;;7.40;;
23123;SDS011;11731;48.592;8.858;2022-07-29T07:20:31;8.43;;;7.60;;
23123;SDS011;11731;48.592;8.858;2022-07-29T07:22:59;9.43;;;6.80;;
23123;SDS011;11731;48.592;8.858;2022-07-29T07:25:27;7.07;;;6.47;;
23123;SDS011;11731;48.592;8.858;2022-07-29T07:27:56;7.10;;;6.50;;
23123;SDS011;11731;48.592;8.858;2022-07-29T07:30:29;8.77;;;7.37;;
23123;SDS011;11731;48.592;8.858;2022-07-29T07:32:57;9.00;;;6.60;;
23123;SDS011;11731;48.592;8.858;2022-07-29T07:35:25;9.27;;;6.47;;
23123;SDS011;11731;48.592;8.858;2022-07-29T07:38:07;7.63;;;6.83;;
23123;SDS011;11731;48.592;8.858;2022-07-29T07:40:34;8.00;;;6.60;;
23123;SDS011;11731;48.592;8.858;2022-07-29T07:43:02;8.23;;;6.33;;
23123;SDS011;11731;48.592;8.858;2022-07-29T07:45:35;7.30;;;6.60;;
23123;SDS011;11731;48.592;8.858;2022-07-29T07:48:02;6.70;;;6.10;;
23123;SDS011;11731;48.592;8.858;2022-07-29T07:50:30;6.93;;;6.23;;
23123;SDS011;11731;48.592;8.858;2022-07-29T07:52:57;7.23;;;6.53;;
23123;SDS011;11731;48.592;8.858;2022-07-29T07:58:33;6.80;;;6.10;;
23123;SDS011;11731;48.592;8.858;2022-07-29T08:03:43;7.23;;;6.23;;
23123;SDS011;11731;48.592;8.858;2022-07-29T08:06:11;6.43;;;5.80;;
23123;SDS011;11731;48.592;8.858;2022-07-29T08:09:16;8.03;;;6.57;;
23123;SDS011;11731;48.592;8.858;2022-07-29T08:12:33;7.40;;;6.33;;
23123;SDS011;11731;48.592;8.858;2022-07-29T08:15:04;6.13;;;5.53;;
23123;SDS011;11731;48.592;8.858;2022-07-29T08:17:35;6.10;;;5.53;;
23123;SDS011;11731;48.592;8.858;2022-07-29T08:20:06;6.10;;;5.23;;
23123;SDS011;11731;48.592;8.858;2022-07-29T08:22:34;6.17;;;5.57;;
23123;SDS011;11731;48.592;8.858;2022-07-29T08:25:00;6.23;;;5.27;;
23123;SDS011;11731;48.592;8.858;2022-07-29T08:27:30;6.53;;;5.93;;
23123;SDS011;11731;48.592;8.858;2022-07-29T08:29:57;6.33;;;5.70;;
23123;SDS011;11731;48.592;8.858;2022-07-29T08:38:27;10.20;;;6.07;;
23123;SDS011;11731;48.592;8.858;2022-07-29T08:47:48;7.83;;;5.97;;
23123;SDS011;11731;48.592;8.858;2022-07-29T08:50:15;6.70;;;5.87;;
23123;SDS011;11731;48.592;8.858;2022-07-29T08:52:42;6.40;;;5.80;;
23123;SDS011;11731;48.592;8.858;2022-07-29T08:55:10;9.03;;;5.30;;
23123;SDS011;11731;48.592;8.858;2022-07-29T08:57:44;8.23;;;5.70;;
23123;SDS011;11731;48.592;8.858;2022-07-29T09:00:18;6.17;;;5.57;;
23123;SDS011;11731;48.592;8.858;2022-07-29T09:03:09;7.03;;;5.83;;
23123;SDS011;11731;48.592;8.858;2022-07-29T09:06:21;5.90;;;5.27;;
23123;SDS011;11731;48.592;8.858;2022-07-29T09:08:54;7.47;;;5.27;;
23123;SDS011;11731;48.592;8.858;2022-07-29T09:18:11;6.93;;;5.27;;
23123;SDS011;11731;48.592;8.858;2022-07-29T09:20:58;6.20;;;5.30;;
23123;SDS011;11731;48.592;8.858;2022-07-29T09:24:00;6.13;;;5.30;;
23123;SDS011;11731;48.592;8.858;2022-07-29T09:26:32;10.60;;;4.77;;
23123;SDS011;11731;48.592;8.858;2022-07-29T09:29:01;5.20;;;4.70;;
23123;SDS011;11731;48.592;8.858;2022-07-29T09:31:36;5.57;;;5.00;;
23123;SDS011;11731;48.592;8.858;2022-07-29T09:34:06;8.77;;;4.73;;
23123;SDS011;11731;48.592;8.858;2022-07-29T09:36:40;5.47;;;4.83;;
23123;SDS011;11731;48.592;8.858;2022-07-29T09:39:09;7.97;;;5.27;;
23123;SDS011;11731;48.592;8.858;2022-07-29T09:42:11;5.53;;;4.70;;
23123;SDS011;11731;48.592;8.858;2022-07-29T09:44:46;4.73;;;4.23;;
23123;SDS011;11731;48.592;8.858;2022-07-29T09:47:18;5.63;;;4.53;;
23123;SDS011;11731;48.592;8.858;2022-07-29T09:50:37;10.17;;;5.13;;
23123;SDS011;11731;48.592;8.858;2022-07-29T09:56:03;5.67;;;4.70;;
23123;SDS011;11731;48.592;8.858;2022-07-29T09:58:35;7.67;;;4.60;;
23123;SDS011;11731;48.592;8.858;2022-07-29T10:03:53;7.33;;;4.37;;
23123;SDS011;11731;48.592;8.858;2022-07-29T10:12:24;4.97;;;4.00;;
23123;SDS011;11731;48.592;8.858;2022-07-29T10:14:51;5.93;;;4.47;;
23123;SDS011;11731;48.592;8.858;2022-07-29T10:17:19;7.20;;;4.70;;
23123;SDS011;11731;48.592;8.858;2022-07-29T10:19:49;5.53;;;4.30;;
23123;SDS011;11731;48.592;8.858;2022-07-29T10:22:18;8.37;;;4.63;;
23123;SDS011;11731;48.592;8.858;2022-07-29T10:24:51;5.07;;;4.37;;
23123;SDS011;11731;48.592;8.858;2022-07-29T10:27:56;5.80;;;4.00;;
23123;SDS011;11731;48.592;8.858;2022-07-29T10:30:39;6.37;;;2.40;;
23123;SDS011;11731;48.592;8.858;2022-07-29T10:33:21;11.57;;;3.13;;
23123;SDS011;11731;48.592;8.858;2022-07-29T10:36:38;4.37;;;1.83;;
23123;SDS011;11731;48.592;8.858;2022-07-29T10:39:17;4.07;;;2.20;;
23123;SDS011;11731;48.592;8.858;2022-07-29T10:42:11;2.60;;;2.40;;
23123;SDS011;11731;48.592;8.858;2022-07-29T10:44:49;3.20;;;2.00;;
23123;SDS011;11731;48.592;8.858;2022-07-29T10:47:21;2.00;;;1.80;;
23123;SDS011;11731;48.592;8.858;2022-07-29T10:49:54;7.17;;;2.47;;
23123;SDS011;11731;48.592;8.858;2022-07-29T10:52:23;4.87;;;2.33;;
23123;SDS011;11731;48.592;8.858;2022-07-29T10:54:52;4.70;;;2.67;;
23123;SDS011;11731;48.592;8.858;2022-07-29T10:57:21;5.93;;;3.40;;
23123;SDS011;11731;48.592;8.858;2022-07-29T11:02:58;5.27;;;4.70;;
23123;SDS011;11731;48.592;8.858;2022-07-29T11:05:26;6.00;;;4.53;;
23123;SDS011;11731;48.592;8.858;2022-07-29T11:10:51;9.00;;;4.20;;
23123;SDS011;11731;48.592;8.858;2022-07-29T11:16:22;5.77;;;5.10;;
23123;SDS011;11731;48.592;8.858;2022-07-29T11:21:53;5.03;;;3.30;;
23123;SDS011;11731;48.592;8.858;2022-07-29T11:24:23;3.90;;;3.50;;
23123;SDS011;11731;48.592;8.858;2022-07-29T11:27:06;5.60;;;4.03;;
23123;SDS011;11731;48.592;8.858;2022-07-29T11:29:34;4.03;;;3.67;;
23123;SDS011;11731;48.592;8.858;2022-07-29T11:32:10;4.20;;;3.30;;
23123;SDS011;11731;48.592;8.858;2022-07-29T11:35:09;3.33;;;3.00;;
23123;SDS011;11731;48.592;8.858;2022-07-29T11:38:23;4.20;;;3.17;;
23123;SDS011;11731;48.592;8.858;2022-07-29T11:49:12;3.00;;;2.47;;
23123;SDS011;11731;48.592;8.858;2022-07-29T11:51:41;2.20;;;2.00;;
23123;SDS011;11731;48.592;8.858;2022-07-29T11:54:08;2.50;;;2.07;;
23123;SDS011;11731;48.592;8.858;2022-07-29T11:56:42;2.23;;;2.03;;
23123;SDS011;11731;48.592;8.858;2022-07-29T11:59:13;3.10;;;2.70;;
23123;SDS011;11731;48.592;8.858;2022-07-29T12:01:51;2.30;;;2.13;;
23123;SDS011;11731;48.592;8.858;2022-07-29T12:04:22;2.30;;;2.10;;
23123;SDS011;11731;48.592;8.858;2022-07-29T12:06:49;3.20;;;2.27;;
23123;SDS011;11731;48.592;8.858;2022-07-29T12:09:17;2.60;;;1.90;;
23123;SDS011;11731;48.592;8.858;2022-07-29T12:11:44;2.83;;;2.00;;
23123;SDS011;11731;48.592;8.858;2022-07-29T12:14:24;3.23;;;2.90;;
23123;SDS011;11731;48.592;8.858;2022-07-29T12:16:51;4.30;;;2.20;;
23123;SDS011;11731;48.592;8.858;2022-07-29T12:19:20;4.87;;;2.80;;
23123;SDS011;11731;48.592;8.858;2022-07-29T12:21:56;4.23;;;2.20;;
23123;SDS011;11731;48.592;8.858;2022-07-29T12:24:24;3.00;;;2.53;;
23123;SDS011;11731;48.592;8.858;2022-07-29T12:26:51;2.87;;;2.37;;
23123;SDS011;11731;48.592;8.858;2022-07-29T12:29:19;3.27;;;2.30;;
23123;SDS011;11731;48.592;8.858;2022-07-29T12:32:02;2.70;;;2.50;;
23123;SDS011;11731;48.592;8.858;2022-07-29T12:34:32;3.63;;;2.80;;
23123;SDS011;11731;48.592;8.858;2022-07-29T12:36:59;5.70;;;2.83;;
23123;SDS011;11731;48.592;8.858;2022-07-29T12:39:27;7.93;;;3.67;;
23123;SDS011;11731;48.592;8.858;2022-07-29T12:41:54;7.57;;;3.70;;
23123;SDS011;11731;48.592;8.858;2022-07-29T12:44:21;5.77;;;3.77;;
23123;SDS011;11731;48.592;8.858;2022-07-29T12:47:00;8.63;;;4.87;;
23123;SDS011;11731;48.592;8.858;2022-07-29T12:49:28;7.87;;;5.07;;
23123;SDS011;11731;48.592;8.858;2022-07-29T12:51:56;12.97;;;6.33;;
23123;SDS011;11731;48.592;8.858;2022-07-29T12:54:23;13.63;;;7.67;;
23123;SDS011;11731;48.592;8.858;2022-07-29T12:56:59;7.27;;;6.33;;
